This is the latest recevied weather packets stored in our database for station/object KA4YMY. If no packets are shown the sender has not sent any weather packets the latest 10 day(s).
| Time | Temp. | Humidity | Pressure | Rain* | Wind** | Luminosity | Snow |
|---|---|---|---|---|---|---|---|
| 1777811117 | 10.56° C | 71% | 1020 hPa | 0 mm | - | - | - |
| 1777810517 | 9.44° C | 78% | 1019.8 hPa | 0 mm | - | - | - |
| 1777809917 | 8.33° C | 89% | 1019.7 hPa | 0 mm | - | - | - |
| 1777809317 | 6.67° C | 96% | 1019.6 hPa | 0 mm | - | - | - |
| 1777808717 | 5.56° C | 96% | 1019.4 hPa | 0 mm | - | - | - |
| 1777808117 | 4.44° C | 95% | 1019.3 hPa | 0 mm | - | - | - |
| 1777807517 | 3.89° C | 92% | 1019.3 hPa | 0 mm | - | - | - |
| 1777806917 | 3.33° C | 90% | 1019.1 hPa | 0 mm | - | - | - |
| 1777806317 | 3.33° C | 89% | 1019 hPa | 0 mm | - | - | - |
| 1777805717 | 3.33° C | 89% | 1018.7 hPa | 0 mm | - | - | - |
| 1777805117 | 3.33° C | 89% | 1018.4 hPa | 0 mm | - | - | - |
| 1777804517 | 3.33° C | 89% | 1018.3 hPa | 0 mm | - | - | - |
| 1777803917 | 3.33° C | 88% | 1018.1 hPa | 0 mm | - | - | - |
| 1777803317 | 3.33° C | 88% | 1017.8 hPa | 0 mm | - | - | - |
| 1777802717 | 3.33° C | 88% | 1017.6 hPa | 0 mm | - | - | - |
| 1777802117 | 3.33° C | 88% | 1017.6 hPa | 0 mm | - | - | - |
| 1777801517 | 3.89° C | 88% | 1017.5 hPa | 0 mm | - | - | - |
| 1777800916 | 3.89° C | 88% | 1017.4 hPa | 0 mm | - | - | - |
| 1777800316 | 3.89° C | 88% | 1017.2 hPa | 0 mm | - | - | - |
| 1777799717 | 3.89° C | 88% | 1017.2 hPa | 0 mm | - | - | - |
| 1777799116 | 3.89° C | 88% | 1017.1 hPa | 0 mm | - | - | - |
| 1777798517 | 4.44° C | 88% | 1017 hPa | 0 mm | - | - | - |
| 1777797916 | 4.44° C | 88% | 1017 hPa | 0 mm | - | - | - |
| 1777797316 | 4.44° C | 88% | 1016.9 hPa | 0 mm | - | - | - |
| 1777796716 | 4.44° C | 88% | 1016.9 hPa | 0 mm | - | - | - |
* Rain latest hour (hover to see other rain measurements)
** Current wind speed in m/s (hover to see current wind gust speed)